Time;durP1;ratioP1;P1;durP2;ratioP2;P2;SDS_P1;SDS_P2;PMS_P1;PMS_P2;Temp;Humidity;BMP_temperature;BMP_pressure;BME280_temperature;BME280_humidity;BME280_pressure;Samples;Min_cycle;Max_cycle;Signal;HPM_P1;HPM_P2
2023/12/05 00:01:32;;;;;;;;;;;;;;;;;;10307286;28;20489;-86
2023/12/05 00:11:56;;;;;;;;;;;;;;;;;;11623900;23;19920;-87
2023/12/05 00:16:56;;;;;;;;;;;;;;;;;;10376584;28;19914;-84
2023/12/05 00:21:58;;;;;;;;;;;;;;;;;;10359591;28;19925;-85
2023/12/05 00:26:58;;;;;;;;;;;;;;;;;;10316795;28;19969;-84
2023/12/05 00:31:58;;;;;;;;;;;;;;;;;;10332024;28;19913;-87
2023/12/05 00:37:00;;;;;;;;;;;;;;;;;;10544402;23;19914;-93
2023/12/05 00:42:04;;;;;;;;;;;;;;;;;;11220211;23;19953;-93
2023/12/05 00:47:08;;;;;;;;;;;;;;;;;;10378177;28;19926;-93
2023/12/05 01:03:04;;;;;;;;;;;;;;;;;;10531063;23;19926;-92
2023/12/05 01:13:32;;;;;;;;;;;;;;;;;;10695377;23;19929;-93
2023/12/05 01:18:52;;;;;;;;;;;;;;;;;;10924071;23;19915;-93
2023/12/05 01:23:56;;;;;;;;;;;;;;;;;;10710433;23;19928;-94
2023/12/05 01:29:05;;;;;;;;;;;;;;;;;;10280884;28;19906;-93
2023/12/05 01:34:12;;;;;;;;;;;;;;;;;;10297511;28;19953;-91
2023/12/05 01:39:13;;;;;;;;;;;;;;;;;;10315458;23;20000;-87
2023/12/05 01:44:16;;;;;;;;;;;;;;;;;;10528840;23;20559;-89
2023/12/05 01:54:40;;;;;;;;;;;;;;;;;;10502915;23;19928;-94
2023/12/05 02:05:13;;;;;;;;;;;;;;;;;;10980463;23;20052;-93
2023/12/05 02:10:15;;;;;;;;;;;;;;;;;;10848679;23;19924;-93
2023/12/05 02:15:22;;;;;;;;;;;;;;;;;;10392893;28;19917;-94
2023/12/05 02:20:24;;;;;;;;;;;;;;;;;;10628306;23;19941;-94
2023/12/05 02:25:26;;;;;;;;;;;;;;;;;;10336686;28;19936;-94
2023/12/05 02:30:28;;;;;;;;;;;;;;;;;;10321238;28;20296;-94
2023/12/05 02:35:32;;;;;;;;;;;;;;;;;;10301213;23;19930;-88
2023/12/05 02:40:32;;;;;;;;;;;;;;;;;;10320932;28;20492;-88
2023/12/05 02:45:33;;;;;;;;;;;;;;;;;;10327242;28;19906;-88
2023/12/05 02:50:40;;;;;;;;;;;;;;;;;;11191000;23;19921;-95
2023/12/05 02:55:44;;;;;;;;;;;;;;;;;;10350496;28;19941;-93
2023/12/05 03:00:48;;;;;;;;;;;;;;;;;;10371803;28;19906;-94
2023/12/05 03:05:51;;;;;;;;;;;;;;;;;;10292074;28;19941;-93
2023/12/05 03:10:56;;;;;;;;;;;;;;;;;;10328113;28;19905;-95
2023/12/05 03:15:56;;;;;;;;;;;;;;;;;;10446220;23;20108;-89
2023/12/05 03:20:57;;;;;;;;;;;;;;;;;;10250265;28;20002;-87
2023/12/05 03:25:57;;;;;;;;;;;;;;;;;;10295611;28;19949;-89
2023/12/05 03:30:57;;;;;;;;;;;;;;;;;;10260479;28;19978;-86
2023/12/05 03:35:58;;;;;;;;;;;;;;;;;;10335875;28;19933;-87
2023/12/05 03:40:58;;;;;;;;;;;;;;;;;;10299838;28;19922;-85
2023/12/05 03:45:59;;;;;;;;;;;;;;;;;;10333533;28;19922;-83
2023/12/05 03:51:00;;;;;;;;;;;;;;;;;;10317897;28;19906;-84
2023/12/05 03:56:01;;;;;;;;;;;;;;;;;;10297370;28;19961;-86
2023/12/05 04:01:01;;;;;;;;;;;;;;;;;;10330319;28;19914;-83
2023/12/05 04:06:01;;;;;;;;;;;;;;;;;;10384917;23;20043;-81
2023/12/05 04:11:03;;;;;;;;;;;;;;;;;;10345729;28;20032;-86
2023/12/05 04:16:10;;;;;;;;;;;;;;;;;;10367954;28;19981;-85
2023/12/05 04:21:12;;;;;;;;;;;;;;;;;;10412241;28;19916;-82
2023/12/05 04:26:12;;;;;;;;;;;;;;;;;;10348399;28;19922;-85
2023/12/05 04:31:13;;;;;;;;;;;;;;;;;;10321276;28;19922;-86
2023/12/05 04:36:16;;;;;;;;;;;;;;;;;;10335058;28;20064;-83
2023/12/05 04:41:16;;;;;;;;;;;;;;;;;;10349670;28;19952;-84
2023/12/05 04:46:17;;;;;;;;;;;;;;;;;;10474089;23;19930;-84
2023/12/05 04:51:17;;;;;;;;;;;;;;;;;;10273153;28;19922;-84
2023/12/05 04:56:17;;;;;;;;;;;;;;;;;;10276110;28;19930;-83
2023/12/05 05:01:17;;;;;;;;;;;;;;;;;;10287983;28;19922;-87
2023/12/05 05:06:18;;;;;;;;;;;;;;;;;;10323859;28;19937;-85
2023/12/05 05:11:19;;;;;;;;;;;;;;;;;;10317070;28;19972;-83
2023/12/05 05:16:19;;;;;;;;;;;;;;;;;;10311194;28;19934;-85
2023/12/05 05:21:19;;;;;;;;;;;;;;;;;;10310548;28;19930;-84
2023/12/05 05:26:22;;;;;;;;;;;;;;;;;;10274479;28;19922;-85
2023/12/05 05:31:23;;;;;;;;;;;;;;;;;;10269724;28;19922;-85
2023/12/05 05:41:55;;;;;;;;;;;;;;;;;;10274011;28;19915;-85
2023/12/05 05:46:56;;;;;;;;;;;;;;;;;;10262663;28;19906;-85
2023/12/05 05:51:58;;;;;;;;;;;;;;;;;;10386110;23;19914;-81
2023/12/05 05:56:58;;;;;;;;;;;;;;;;;;10788731;23;19933;-81
2023/12/05 06:01:59;;;;;;;;;;;;;;;;;;10497634;23;19913;-88
2023/12/05 06:12:23;;;;;;;;;;;;;;;;;;10568918;23;19940;-85
2023/12/05 06:17:23;;;;;;;;;;;;;;;;;;10361063;28;19993;-83
2023/12/05 06:22:26;;;;;;;;;;;;;;;;;;10504049;23;19918;-85
2023/12/05 06:27:26;;;;;;;;;;;;;;;;;;10575823;23;19981;-87
2023/12/05 06:32:27;;;;;;;;;;;;;;;;;;10401280;23;19934;-86
2023/12/05 06:37:28;;;;;;;;;;;;;;;;;;10336761;28;20664;-84
2023/12/05 06:42:29;;;;;;;;;;;;;;;;;;10623208;23;19914;-96
2023/12/05 06:47:33;;;;;;;;;;;;;;;;;;10357832;28;19920;-93
2023/12/05 06:52:39;;;;;;;;;;;;;;;;;;10948716;23;19932;-86
2023/12/05 07:02:42;;;;;;;;;;;;;;;;;;10383083;28;19935;-92
2023/12/05 07:07:49;;;;;;;;;;;;;;;;;;10352838;28;20438;-94
2023/12/05 07:12:50;;;;;;;;;;;;;;;;;;10320653;28;19949;-89
2023/12/05 07:17:54;;;;;;;;;;;;;;;;;;10385224;28;19905;-92
2023/12/05 07:22:54;;;;;;;;;;;;;;;;;;10304170;23;19979;-85
2023/12/05 07:27:55;;;;;;;;;;;;;;;;;;10408263;23;19906;-93
2023/12/05 07:33:06;;;;;;;;;;;;;;;;;;10527780;23;19954;-94
2023/12/05 07:38:07;;;;;;;;;;;;;;;;;;10832337;23;19925;-93
2023/12/05 07:43:19;;;;;;;;;;;;;;;;;;11517728;23;19910;-92
2023/12/05 07:48:21;;;;;;;;;;;;;;;;;;10332794;28;19922;-95
2023/12/05 07:53:23;;;;;;;;;;;;;;;;;;10787606;23;20021;-86
2023/12/05 07:58:25;;;;;;;;;;;;;;;;;;10379120;23;19946;-84
2023/12/05 08:03:26;;;;;;;;;;;;;;;;;;10298898;28;19918;-85
2023/12/05 08:08:27;;;;;;;;;;;;;;;;;;10280916;28;19916;-84
2023/12/05 08:13:27;;;;;;;;;;;;;;;;;;10276311;28;19926;-85
2023/12/05 08:18:28;;;;;;;;;;;;;;;;;;10294558;28;19923;-88
2023/12/05 08:23:28;;;;;;;;;;;;;;;;;;10252411;28;19923;-88
2023/12/05 08:28:30;;;;;;;;;;;;;;;;;;10263800;28;19922;-88
2023/12/05 08:33:31;;;;;;;;;;;;;;;;;;10252268;28;20588;-86
2023/12/05 08:38:31;;;;;;;;;;;;;;;;;;10229814;28;19919;-86
2023/12/05 08:43:32;;;;;;;;;;;;;;;;;;10241542;28;20013;-89
2023/12/05 08:48:32;;;;;;;;;;;;;;;;;;10348765;23;19952;-91
2023/12/05 08:53:58;;;;;;;;;;;;;;;;;;10364273;28;19976;-92
2023/12/05 08:59:00;;;;;;;;;;;;;;;;;;10348610;28;19917;-93
2023/12/05 09:04:04;;;;;;;;;;;;;;;;;;10323931;28;19918;-94
2023/12/05 09:09:04;;;;;;;;;;;;;;;;;;10569242;23;19921;-92
2023/12/05 09:14:07;;;;;;;;;;;;;;;;;;10331973;28;19942;-92
2023/12/05 09:19:15;;;;;;;;;;;;;;;;;;10441082;23;5057878;-94
2023/12/05 09:24:39;;;;;;;;;;;;;;;;;;10348495;28;19922;-93
2023/12/05 09:29:40;;;;;;;;;;;;;;;;;;10286254;28;19922;-93
2023/12/05 09:35:12;;;;;;;;;;;;;;;;;;10297550;28;19911;-92
2023/12/05 09:40:19;;;;;;;;;;;;;;;;;;10362269;23;19930;-87
2023/12/05 09:45:20;;;;;;;;;;;;;;;;;;10390599;28;19906;-84
2023/12/05 09:50:20;;;;;;;;;;;;;;;;;;10411814;28;19989;-85
2023/12/05 09:55:21;;;;;;;;;;;;;;;;;;10380031;28;19980;-86
2023/12/05 10:00:22;;;;;;;;;;;;;;;;;;10399925;28;20023;-87
2023/12/05 10:05:22;;;;;;;;;;;;;;;;;;10337830;28;19918;-87
2023/12/05 10:10:22;;;;;;;;;;;;;;;;;;10377153;28;19918;-83
2023/12/05 10:15:22;;;;;;;;;;;;;;;;;;10357379;28;19936;-85
2023/12/05 10:20:23;;;;;;;;;;;;;;;;;;10376107;28;19917;-88
2023/12/05 10:25:24;;;;;;;;;;;;;;;;;;10384314;28;19929;-86
2023/12/05 10:30:25;;;;;;;;;;;;;;;;;;10364330;28;20996;-85
2023/12/05 10:35:36;;;;;;;;;;;;;;;;;;10436999;23;19930;-81
2023/12/05 10:40:39;;;;;;;;;;;;;;;;;;10569985;23;19980;-85
2023/12/05 10:45:40;;;;;;;;;;;;;;;;;;10359355;28;19921;-84
2023/12/05 10:50:42;;;;;;;;;;;;;;;;;;10352202;28;20002;-85
2023/12/05 10:55:46;;;;;;;;;;;;;;;;;;10365693;28;19961;-82
2023/12/05 11:00:48;;;;;;;;;;;;;;;;;;10398395;28;19930;-83
2023/12/05 11:05:48;;;;;;;;;;;;;;;;;;10375412;28;19906;-81
2023/12/05 11:10:50;;;;;;;;;;;;;;;;;;10375480;28;19901;-84
2023/12/05 11:15:52;;;;;;;;;;;;;;;;;;10348445;28;19961;-86
2023/12/05 11:20:52;;;;;;;;;;;;;;;;;;10288281;28;20801;-85
2023/12/05 11:25:53;;;;;;;;;;;;;;;;;;10299243;28;20114;-84
2023/12/05 11:30:54;;;;;;;;;;;;;;;;;;10322962;28;20028;-84
2023/12/05 11:35:55;;;;;;;;;;;;;;;;;;10330698;28;19929;-83
2023/12/05 11:40:57;;;;;;;;;;;;;;;;;;10276854;28;19917;-82
2023/12/05 11:45:58;;;;;;;;;;;;;;;;;;10319367;28;19993;-82
2023/12/05 11:50:58;;;;;;;;;;;;;;;;;;10304311;28;19925;-81
2023/12/05 11:56:00;;;;;;;;;;;;;;;;;;10291144;28;19938;-81
2023/12/05 12:01:02;;;;;;;;;;;;;;;;;;10279862;28;19932;-85
2023/12/05 12:06:03;;;;;;;;;;;;;;;;;;10232100;28;19961;-83
2023/12/05 12:11:04;;;;;;;;;;;;;;;;;;10280559;28;19926;-83
2023/12/05 12:16:04;;;;;;;;;;;;;;;;;;10278420;28;19929;-82
2023/12/05 12:21:06;;;;;;;;;;;;;;;;;;10293670;28;19914;-82
2023/12/05 12:26:07;;;;;;;;;;;;;;;;;;10286238;28;19926;-81
2023/12/05 12:31:10;;;;;;;;;;;;;;;;;;10263712;28;19922;-81
2023/12/05 12:36:11;;;;;;;;;;;;;;;;;;10266632;28;19935;-82
2023/12/05 12:41:13;;;;;;;;;;;;;;;;;;10307721;28;19922;-83
2023/12/05 12:46:13;;;;;;;;;;;;;;;;;;10298441;28;19926;-78
2023/12/05 12:51:14;;;;;;;;;;;;;;;;;;10258259;28;19991;-81
2023/12/05 12:56:15;;;;;;;;;;;;;;;;;;10286942;28;19973;-84
2023/12/05 13:01:15;;;;;;;;;;;;;;;;;;10288293;28;19922;-81
2023/12/05 13:06:16;;;;;;;;;;;;;;;;;;10284565;28;20071;-82
2023/12/05 13:11:17;;;;;;;;;;;;;;;;;;10269991;28;19922;-82
2023/12/05 13:16:18;;;;;;;;;;;;;;;;;;10280423;28;19926;-84
2023/12/05 13:21:18;;;;;;;;;;;;;;;;;;10277038;28;19922;-81
2023/12/05 13:26:19;;;;;;;;;;;;;;;;;;10276852;28;19946;-84
2023/12/05 13:31:20;;;;;;;;;;;;;;;;;;10305583;28;19945;-86
2023/12/05 13:36:22;;;;;;;;;;;;;;;;;;10328325;28;19915;-85
2023/12/05 13:41:28;;;;;;;;;;;;;;;;;;10321226;28;19963;-85
2023/12/05 13:46:29;;;;;;;;;;;;;;;;;;10306150;28;19906;-84
2023/12/05 13:51:30;;;;;;;;;;;;;;;;;;10313501;28;19906;-84
2023/12/05 13:56:30;;;;;;;;;;;;;;;;;;10306657;28;19953;-84
2023/12/05 14:01:30;;;;;;;;;;;;;;;;;;10573003;23;19913;-84
2023/12/05 14:06:30;;;;;;;;;;;;;;;;;;10358072;23;19914;-85
2023/12/05 14:11:31;;;;;;;;;;;;;;;;;;10259520;28;20062;-85
2023/12/05 14:21:55;;;;;;;;;;;;;;;;;;10712955;23;19925;-83
2023/12/05 14:27:00;;;;;;;;;;;;;;;;;;11288430;23;21043;-85
2023/12/05 14:32:03;;;;;;;;;;;;;;;;;;10460217;23;19914;-87
2023/12/05 14:42:37;;;;;;;;;;;;;;;;;;11398851;23;19929;-89
2023/12/05 14:47:37;;;;;;;;;;;;;;;;;;10549246;23;19921;-85
2023/12/05 14:52:39;;;;;;;;;;;;;;;;;;10349723;28;19964;-86
2023/12/05 14:57:39;;;;;;;;;;;;;;;;;;10333337;28;19926;-89
2023/12/05 15:08:01;;;;;;;;;;;;;;;;;;10284151;28;19996;-88
2023/12/05 15:13:23;;;;;;;;;;;;;;;;;;11119949;23;19940;-88
2023/12/05 15:18:37;;;;;;;;;;;;;;;;;;11418970;23;20215;-87
2023/12/05 15:23:39;;;;;;;;;;;;;;;;;;10273063;28;19929;-88
2023/12/05 15:34:07;;;;;;;;;;;;;;;;;;10944417;23;19921;-88
2023/12/05 15:44:41;;;;;;;;;;;;;;;;;;11560927;23;19924;-86
2023/12/05 16:33:05;;;;;;;;;;;;;;;;;;10642805;23;19933;-87
2023/12/05 16:38:09;;;;;;;;;;;;;;;;;;10490651;23;19933;-86
2023/12/05 16:48:33;;;;;;;;;;;;;;;;;;10378808;23;19940;-85
2023/12/05 16:53:38;;;;;;;;;;;;;;;;;;10370356;28;19941;-88
2023/12/05 16:59:07;;;;;;;;;;;;;;;;;;11199342;23;20253;-88
2023/12/05 17:09:33;;;;;;;;;;;;;;;;;;11442816;23;19924;-86
2023/12/05 17:14:44;;;;;;;;;;;;;;;;;;10313142;28;20017;-84
2023/12/05 17:19:45;;;;;;;;;;;;;;;;;;10312137;28;20540;-87
2023/12/05 17:24:47;;;;;;;;;;;;;;;;;;10330251;28;20423;-88
2023/12/05 17:29:49;;;;;;;;;;;;;;;;;;10297916;28;20715;-87
2023/12/05 17:34:49;;;;;;;;;;;;;;;;;;11109144;23;19926;-86
2023/12/05 17:39:49;;;;;;;;;;;;;;;;;;10620586;23;19921;-86
2023/12/05 17:50:13;;;;;;;;;;;;;;;;;;10931406;23;19913;-86
2023/12/05 17:55:14;;;;;;;;;;;;;;;;;;10401404;23;19961;-85
2023/12/05 18:00:16;;;;;;;;;;;;;;;;;;10350837;28;19922;-84
2023/12/05 18:05:20;;;;;;;;;;;;;;;;;;10280949;28;19949;-85
2023/12/05 18:10:21;;;;;;;;;;;;;;;;;;10306412;28;19957;-87
2023/12/05 18:15:22;;;;;;;;;;;;;;;;;;10309419;28;19930;-86
2023/12/05 18:20:29;;;;;;;;;;;;;;;;;;10679593;23;19925;-88
2023/12/05 18:36:31;;;;;;;;;;;;;;;;;;10922870;23;19914;-87
2023/12/05 18:41:40;;;;;;;;;;;;;;;;;;10305842;28;19913;-85
2023/12/05 18:46:56;;;;;;;;;;;;;;;;;;11035842;23;19914;-86
2023/12/05 18:52:00;;;;;;;;;;;;;;;;;;10855247;23;19957;-87
2023/12/05 19:19:03;;;;;;;;;;;;;;;;;;12138983;23;19931;-89
2023/12/05 19:24:09;;;;;;;;;;;;;;;;;;10532601;23;19922;-85
2023/12/05 19:56:43;;;;;;;;;;;;;;;;;;10675809;23;19972;-89
2023/12/05 20:12:32;;;;;;;;;;;;;;;;;;11921612;23;19932;-89
2023/12/05 20:22:59;;;;;;;;;;;;;;;;;;10293669;28;19930;-87
2023/12/05 20:27:59;;;;;;;;;;;;;;;;;;10307432;28;19906;-86
2023/12/05 20:33:00;;;;;;;;;;;;;;;;;;10246850;28;19914;-84
2023/12/05 20:38:01;;;;;;;;;;;;;;;;;;10335882;28;19957;-83
2023/12/05 20:43:06;;;;;;;;;;;;;;;;;;10836388;23;19929;-84
2023/12/05 20:48:06;;;;;;;;;;;;;;;;;;10397329;28;19906;-84
2023/12/05 20:53:08;;;;;;;;;;;;;;;;;;10530977;23;19925;-82
2023/12/05 20:58:09;;;;;;;;;;;;;;;;;;10405195;28;19976;-84
2023/12/05 21:03:09;;;;;;;;;;;;;;;;;;10388697;28;20386;-86
2023/12/05 21:08:10;;;;;;;;;;;;;;;;;;10532023;23;19984;-86
2023/12/05 21:13:12;;;;;;;;;;;;;;;;;;10369561;28;19933;-86
2023/12/05 21:18:12;;;;;;;;;;;;;;;;;;10337060;28;19948;-84
2023/12/05 21:23:13;;;;;;;;;;;;;;;;;;10370898;28;19906;-85
2023/12/05 21:38:57;;;;;;;;;;;;;;;;;;11143390;23;20674;-83
2023/12/05 21:44:00;;;;;;;;;;;;;;;;;;11802612;23;19925;-84
2023/12/05 21:49:01;;;;;;;;;;;;;;;;;;10535006;23;19940;-86
2023/12/05 21:54:02;;;;;;;;;;;;;;;;;;11247482;23;20945;-85
2023/12/05 21:59:03;;;;;;;;;;;;;;;;;;10426818;23;20808;-86
2023/12/05 22:04:07;;;;;;;;;;;;;;;;;;10320673;28;19921;-84
2023/12/05 22:09:08;;;;;;;;;;;;;;;;;;10336284;28;19922;-82
2023/12/05 22:14:08;;;;;;;;;;;;;;;;;;10327542;28;19952;-81
2023/12/05 22:24:41;;;;;;;;;;;;;;;;;;10292686;23;19913;-85
2023/12/05 22:29:42;;;;;;;;;;;;;;;;;;10296207;28;19921;-84
2023/12/05 22:34:44;;;;;;;;;;;;;;;;;;10474341;23;20341;-87
2023/12/05 22:44:51;;;;;;;;;;;;;;;;;;10344124;28;19926;-84
2023/12/05 22:49:51;;;;;;;;;;;;;;;;;;11032908;23;19913;-83
2023/12/05 22:54:52;;;;;;;;;;;;;;;;;;10357192;28;19930;-84
2023/12/05 22:59:53;;;;;;;;;;;;;;;;;;10334319;28;19973;-82
2023/12/05 23:04:53;;;;;;;;;;;;;;;;;;10335436;28;19925;-85
2023/12/05 23:09:54;;;;;;;;;;;;;;;;;;10327252;28;20313;-83
2023/12/05 23:14:55;;;;;;;;;;;;;;;;;;10339939;28;19957;-83
2023/12/05 23:19:55;;;;;;;;;;;;;;;;;;10339004;28;19986;-84
2023/12/05 23:24:55;;;;;;;;;;;;;;;;;;10329453;28;19922;-82
2023/12/05 23:29:55;;;;;;;;;;;;;;;;;;10323199;28;19932;-85
2023/12/05 23:34:57;;;;;;;;;;;;;;;;;;10321559;28;19948;-85
2023/12/05 23:39:57;;;;;;;;;;;;;;;;;;10275924;28;19928;-86
2023/12/05 23:44:58;;;;;;;;;;;;;;;;;;10292845;28;19926;-85
2023/12/05 23:49:58;;;;;;;;;;;;;;;;;;10294926;28;19996;-83
2023/12/05 23:54:58;;;;;;;;;;;;;;;;;;10315799;28;19965;-82
2023/12/05 23:59:58;;;;;;;;;;;;;;;;;;10324037;28;19922;-85
